sensor_id;sensor_type;location;lat;lon;timestamp;P1;durP1;ratioP1;P2;durP2;ratioP2
20391;SDS011;10355;53.688;10.078;2024-02-21T00:02:25;16.23;;;7.43;;
20391;SDS011;10355;53.688;10.078;2024-02-21T00:05:08;18.73;;;7.65;;
20391;SDS011;10355;53.688;10.078;2024-02-21T00:07:51;21.98;;;7.80;;
20391;SDS011;10355;53.688;10.078;2024-02-21T00:10:34;19.27;;;7.90;;
20391;SDS011;10355;53.688;10.078;2024-02-21T00:13:17;18.67;;;7.47;;
20391;SDS011;10355;53.688;10.078;2024-02-21T00:16:00;17.58;;;7.18;;
20391;SDS011;10355;53.688;10.078;2024-02-21T00:18:44;19.13;;;8.18;;
20391;SDS011;10355;53.688;10.078;2024-02-21T00:21:27;19.92;;;7.75;;
20391;SDS011;10355;53.688;10.078;2024-02-21T00:24:10;18.73;;;8.05;;
20391;SDS011;10355;53.688;10.078;2024-02-21T00:26:53;20.10;;;8.20;;
20391;SDS011;10355;53.688;10.078;2024-02-21T00:29:36;20.15;;;8.23;;
20391;SDS011;10355;53.688;10.078;2024-02-21T00:32:18;19.88;;;8.25;;
20391;SDS011;10355;53.688;10.078;2024-02-21T00:35:03;19.65;;;8.68;;
20391;SDS011;10355;53.688;10.078;2024-02-21T00:37:46;19.00;;;8.57;;
20391;SDS011;10355;53.688;10.078;2024-02-21T00:40:29;17.25;;;8.40;;
20391;SDS011;10355;53.688;10.078;2024-02-21T00:43:12;19.40;;;8.23;;
20391;SDS011;10355;53.688;10.078;2024-02-21T00:45:55;17.55;;;8.73;;
20391;SDS011;10355;53.688;10.078;2024-02-21T00:48:38;18.50;;;8.45;;
20391;SDS011;10355;53.688;10.078;2024-02-21T00:51:22;23.52;;;9.65;;
20391;SDS011;10355;53.688;10.078;2024-02-21T00:54:05;22.95;;;9.25;;
20391;SDS011;10355;53.688;10.078;2024-02-21T00:56:48;16.45;;;8.80;;
20391;SDS011;10355;53.688;10.078;2024-02-21T00:59:31;19.85;;;9.27;;
20391;SDS011;10355;53.688;10.078;2024-02-21T01:02:14;20.00;;;8.98;;
20391;SDS011;10355;53.688;10.078;2024-02-21T01:04:57;20.98;;;8.95;;
20391;SDS011;10355;53.688;10.078;2024-02-21T01:07:41;23.08;;;9.10;;
20391;SDS011;10355;53.688;10.078;2024-02-21T01:10:24;17.20;;;8.85;;
20391;SDS011;10355;53.688;10.078;2024-02-21T01:13:07;16.25;;;9.05;;
20391;SDS011;10355;53.688;10.078;2024-02-21T01:15:50;19.27;;;8.93;;
20391;SDS011;10355;53.688;10.078;2024-02-21T01:18:32;19.05;;;8.88;;
20391;SDS011;10355;53.688;10.078;2024-02-21T01:21:15;19.25;;;8.45;;
20391;SDS011;10355;53.688;10.078;2024-02-21T01:24:00;17.75;;;8.30;;
20391;SDS011;10355;53.688;10.078;2024-02-21T01:26:42;18.45;;;8.80;;
20391;SDS011;10355;53.688;10.078;2024-02-21T01:29:25;20.20;;;9.02;;
20391;SDS011;10355;53.688;10.078;2024-02-21T01:32:08;23.65;;;9.27;;
20391;SDS011;10355;53.688;10.078;2024-02-21T01:34:51;18.02;;;8.63;;
20391;SDS011;10355;53.688;10.078;2024-02-21T01:37:33;19.92;;;8.98;;
20391;SDS011;10355;53.688;10.078;2024-02-21T01:40:18;15.60;;;8.35;;
20391;SDS011;10355;53.688;10.078;2024-02-21T01:43:01;17.27;;;8.68;;
20391;SDS011;10355;53.688;10.078;2024-02-21T01:45:44;17.70;;;8.25;;
20391;SDS011;10355;53.688;10.078;2024-02-21T01:48:29;15.85;;;8.43;;
20391;SDS011;10355;53.688;10.078;2024-02-21T01:51:12;19.75;;;8.38;;
20391;SDS011;10355;53.688;10.078;2024-02-21T01:53:55;18.80;;;8.05;;
20391;SDS011;10355;53.688;10.078;2024-02-21T01:56:40;15.13;;;7.22;;
20391;SDS011;10355;53.688;10.078;2024-02-21T01:59:23;19.20;;;8.35;;
20391;SDS011;10355;53.688;10.078;2024-02-21T02:02:06;16.25;;;8.25;;
20391;SDS011;10355;53.688;10.078;2024-02-21T02:04:49;18.98;;;7.80;;
20391;SDS011;10355;53.688;10.078;2024-02-21T02:07:32;16.77;;;7.53;;
20391;SDS011;10355;53.688;10.078;2024-02-21T02:10:15;17.85;;;7.43;;
20391;SDS011;10355;53.688;10.078;2024-02-21T02:12:59;15.65;;;6.80;;
20391;SDS011;10355;53.688;10.078;2024-02-21T02:15:42;12.95;;;6.90;;
20391;SDS011;10355;53.688;10.078;2024-02-21T02:18:25;14.80;;;7.53;;
20391;SDS011;10355;53.688;10.078;2024-02-21T02:21:10;12.25;;;7.30;;
20391;SDS011;10355;53.688;10.078;2024-02-21T02:23:54;12.38;;;6.85;;
20391;SDS011;10355;53.688;10.078;2024-02-21T02:26:37;15.50;;;7.10;;
20391;SDS011;10355;53.688;10.078;2024-02-21T02:29:20;15.38;;;6.85;;
20391;SDS011;10355;53.688;10.078;2024-02-21T02:32:03;13.20;;;6.80;;
20391;SDS011;10355;53.688;10.078;2024-02-21T02:34:46;14.93;;;6.97;;
20391;SDS011;10355;53.688;10.078;2024-02-21T02:37:29;12.18;;;7.10;;
20391;SDS011;10355;53.688;10.078;2024-02-21T02:40:13;13.68;;;7.22;;
20391;SDS011;10355;53.688;10.078;2024-02-21T02:42:56;14.88;;;7.60;;
20391;SDS011;10355;53.688;10.078;2024-02-21T02:45:39;12.77;;;6.93;;
20391;SDS011;10355;53.688;10.078;2024-02-21T02:48:22;14.27;;;7.78;;
20391;SDS011;10355;53.688;10.078;2024-02-21T02:51:04;15.63;;;7.80;;
20391;SDS011;10355;53.688;10.078;2024-02-21T02:53:47;19.60;;;8.25;;
20391;SDS011;10355;53.688;10.078;2024-02-21T02:56:31;14.88;;;7.93;;
20391;SDS011;10355;53.688;10.078;2024-02-21T02:59:14;16.58;;;7.70;;
20391;SDS011;10355;53.688;10.078;2024-02-21T03:01:57;14.63;;;8.13;;
20391;SDS011;10355;53.688;10.078;2024-02-21T03:04:40;18.40;;;8.50;;
20391;SDS011;10355;53.688;10.078;2024-02-21T03:07:23;18.60;;;8.23;;
20391;SDS011;10355;53.688;10.078;2024-02-21T03:10:07;17.38;;;8.77;;
20391;SDS011;10355;53.688;10.078;2024-02-21T03:12:51;15.80;;;8.65;;
20391;SDS011;10355;53.688;10.078;2024-02-21T03:15:34;17.08;;;8.85;;
20391;SDS011;10355;53.688;10.078;2024-02-21T03:18:17;15.68;;;9.32;;
20391;SDS011;10355;53.688;10.078;2024-02-21T03:21:00;20.30;;;9.00;;
20391;SDS011;10355;53.688;10.078;2024-02-21T03:23:43;17.20;;;8.88;;
20391;SDS011;10355;53.688;10.078;2024-02-21T03:26:25;18.95;;;9.20;;
20391;SDS011;10355;53.688;10.078;2024-02-21T03:29:10;17.80;;;8.63;;
20391;SDS011;10355;53.688;10.078;2024-02-21T03:31:52;21.27;;;9.07;;
20391;SDS011;10355;53.688;10.078;2024-02-21T03:34:35;15.38;;;8.40;;
20391;SDS011;10355;53.688;10.078;2024-02-21T03:37:18;19.40;;;8.85;;
20391;SDS011;10355;53.688;10.078;2024-02-21T03:40:01;18.38;;;9.00;;
20391;SDS011;10355;53.688;10.078;2024-02-21T03:42:44;18.75;;;8.65;;
20391;SDS011;10355;53.688;10.078;2024-02-21T03:45:28;17.15;;;8.15;;
20391;SDS011;10355;53.688;10.078;2024-02-21T03:48:11;23.48;;;8.55;;
20391;SDS011;10355;53.688;10.078;2024-02-21T03:50:53;15.10;;;7.28;;
20391;SDS011;10355;53.688;10.078;2024-02-21T03:53:36;18.27;;;7.97;;
20391;SDS011;10355;53.688;10.078;2024-02-21T03:56:19;13.93;;;7.68;;
20391;SDS011;10355;53.688;10.078;2024-02-21T03:59:01;18.27;;;7.88;;
20391;SDS011;10355;53.688;10.078;2024-02-21T04:01:46;14.57;;;6.97;;
20391;SDS011;10355;53.688;10.078;2024-02-21T04:04:29;15.52;;;7.68;;
20391;SDS011;10355;53.688;10.078;2024-02-21T04:07:11;18.20;;;7.72;;
20391;SDS011;10355;53.688;10.078;2024-02-21T04:09:54;16.65;;;6.88;;
20391;SDS011;10355;53.688;10.078;2024-02-21T04:12:37;15.77;;;7.15;;
20391;SDS011;10355;53.688;10.078;2024-02-21T04:15:20;13.90;;;7.28;;
20391;SDS011;10355;53.688;10.078;2024-02-21T04:18:04;15.95;;;6.93;;
20391;SDS011;10355;53.688;10.078;2024-02-21T04:20:47;13.13;;;6.47;;
20391;SDS011;10355;53.688;10.078;2024-02-21T04:23:29;13.23;;;6.80;;
20391;SDS011;10355;53.688;10.078;2024-02-21T04:26:12;13.32;;;7.00;;
20391;SDS011;10355;53.688;10.078;2024-02-21T04:28:55;15.43;;;6.80;;
20391;SDS011;10355;53.688;10.078;2024-02-21T04:31:38;12.75;;;6.28;;
20391;SDS011;10355;53.688;10.078;2024-02-21T04:34:22;11.13;;;6.40;;
20391;SDS011;10355;53.688;10.078;2024-02-21T04:37:05;13.20;;;6.43;;
20391;SDS011;10355;53.688;10.078;2024-02-21T04:39:48;12.95;;;5.90;;
20391;SDS011;10355;53.688;10.078;2024-02-21T04:42:30;10.07;;;5.38;;
20391;SDS011;10355;53.688;10.078;2024-02-21T04:45:13;10.57;;;6.18;;
20391;SDS011;10355;53.688;10.078;2024-02-21T04:47:56;12.02;;;6.45;;
20391;SDS011;10355;53.688;10.078;2024-02-21T04:50:40;11.77;;;6.38;;
20391;SDS011;10355;53.688;10.078;2024-02-21T04:53:24;14.45;;;5.97;;
20391;SDS011;10355;53.688;10.078;2024-02-21T04:56:06;12.73;;;5.45;;
20391;SDS011;10355;53.688;10.078;2024-02-21T04:58:49;12.25;;;6.22;;
20391;SDS011;10355;53.688;10.078;2024-02-21T05:01:32;11.75;;;5.47;;
20391;SDS011;10355;53.688;10.078;2024-02-21T05:04:15;9.18;;;5.38;;
20391;SDS011;10355;53.688;10.078;2024-02-21T05:07:00;9.98;;;5.28;;
20391;SDS011;10355;53.688;10.078;2024-02-21T05:09:43;11.02;;;5.05;;
20391;SDS011;10355;53.688;10.078;2024-02-21T05:12:26;8.80;;;5.15;;
20391;SDS011;10355;53.688;10.078;2024-02-21T05:15:09;7.15;;;4.47;;
20391;SDS011;10355;53.688;10.078;2024-02-21T05:17:52;7.03;;;4.13;;
20391;SDS011;10355;53.688;10.078;2024-02-21T05:20:35;8.00;;;4.32;;
20391;SDS011;10355;53.688;10.078;2024-02-21T05:23:19;7.25;;;4.05;;
20391;SDS011;10355;53.688;10.078;2024-02-21T05:26:02;5.72;;;3.80;;
20391;SDS011;10355;53.688;10.078;2024-02-21T05:28:45;8.32;;;4.07;;
20391;SDS011;10355;53.688;10.078;2024-02-21T05:31:28;6.53;;;3.90;;
20391;SDS011;10355;53.688;10.078;2024-02-21T05:34:25;6.00;;;3.58;;
20391;SDS011;10355;53.688;10.078;2024-02-21T05:37:08;5.72;;;3.35;;
20391;SDS011;10355;53.688;10.078;2024-02-21T05:39:52;4.93;;;3.38;;
20391;SDS011;10355;53.688;10.078;2024-02-21T05:42:35;4.93;;;3.42;;
20391;SDS011;10355;53.688;10.078;2024-02-21T05:45:18;4.80;;;3.03;;
20391;SDS011;10355;53.688;10.078;2024-02-21T05:48:01;4.93;;;2.90;;
20391;SDS011;10355;53.688;10.078;2024-02-21T05:50:44;7.45;;;3.45;;
20391;SDS011;10355;53.688;10.078;2024-02-21T05:53:27;6.15;;;3.28;;
20391;SDS011;10355;53.688;10.078;2024-02-21T05:56:11;4.63;;;2.90;;
20391;SDS011;10355;53.688;10.078;2024-02-21T05:58:54;4.75;;;2.58;;
20391;SDS011;10355;53.688;10.078;2024-02-21T06:01:37;4.47;;;2.67;;
20391;SDS011;10355;53.688;10.078;2024-02-21T06:04:19;3.30;;;2.50;;
20391;SDS011;10355;53.688;10.078;2024-02-21T06:07:02;4.22;;;2.50;;
20391;SDS011;10355;53.688;10.078;2024-02-21T06:09:45;4.22;;;2.88;;
20391;SDS011;10355;53.688;10.078;2024-02-21T06:12:29;4.28;;;2.72;;
20391;SDS011;10355;53.688;10.078;2024-02-21T06:15:12;3.85;;;2.17;;
20391;SDS011;10355;53.688;10.078;2024-02-21T06:17:55;3.53;;;2.20;;
20391;SDS011;10355;53.688;10.078;2024-02-21T06:20:37;3.88;;;2.28;;
20391;SDS011;10355;53.688;10.078;2024-02-21T06:23:21;2.75;;;1.58;;
20391;SDS011;10355;53.688;10.078;2024-02-21T06:26:04;3.28;;;1.63;;
20391;SDS011;10355;53.688;10.078;2024-02-21T06:28:48;3.35;;;2.10;;
20391;SDS011;10355;53.688;10.078;2024-02-21T06:31:31;2.72;;;1.90;;
20391;SDS011;10355;53.688;10.078;2024-02-21T06:34:14;2.30;;;1.70;;
20391;SDS011;10355;53.688;10.078;2024-02-21T06:36:57;3.90;;;1.80;;
20391;SDS011;10355;53.688;10.078;2024-02-21T06:39:39;2.75;;;1.52;;
20391;SDS011;10355;53.688;10.078;2024-02-21T06:42:24;3.05;;;1.40;;
20391;SDS011;10355;53.688;10.078;2024-02-21T06:45:08;3.08;;;1.48;;
20391;SDS011;10355;53.688;10.078;2024-02-21T06:47:51;1.83;;;1.25;;
20391;SDS011;10355;53.688;10.078;2024-02-21T06:50:34;3.33;;;1.50;;
20391;SDS011;10355;53.688;10.078;2024-02-21T06:53:16;1.92;;;1.33;;
20391;SDS011;10355;53.688;10.078;2024-02-21T06:55:59;2.70;;;1.35;;
20391;SDS011;10355;53.688;10.078;2024-02-21T06:58:42;1.95;;;1.17;;
20391;SDS011;10355;53.688;10.078;2024-02-21T07:01:26;1.95;;;1.52;;
20391;SDS011;10355;53.688;10.078;2024-02-21T07:04:09;1.67;;;0.98;;
20391;SDS011;10355;53.688;10.078;2024-02-21T07:06:52;2.13;;;1.00;;
20391;SDS011;10355;53.688;10.078;2024-02-21T07:09:34;1.50;;;1.02;;
20391;SDS011;10355;53.688;10.078;2024-02-21T07:12:17;2.58;;;1.13;;
20391;SDS011;10355;53.688;10.078;2024-02-21T07:15:00;1.60;;;0.90;;
20391;SDS011;10355;53.688;10.078;2024-02-21T07:17:48;1.63;;;0.82;;
20391;SDS011;10355;53.688;10.078;2024-02-21T07:20:31;1.40;;;0.85;;
20391;SDS011;10355;53.688;10.078;2024-02-21T07:23:15;1.00;;;0.85;;
20391;SDS011;10355;53.688;10.078;2024-02-21T07:25:57;1.63;;;1.00;;
20391;SDS011;10355;53.688;10.078;2024-02-21T07:28:40;1.75;;;1.08;;
20391;SDS011;10355;53.688;10.078;2024-02-21T07:31:23;1.25;;;1.10;;
20391;SDS011;10355;53.688;10.078;2024-02-21T07:34:07;1.23;;;0.90;;
20391;SDS011;10355;53.688;10.078;2024-02-21T07:36:50;1.13;;;0.90;;
20391;SDS011;10355;53.688;10.078;2024-02-21T07:39:35;1.10;;;0.90;;
20391;SDS011;10355;53.688;10.078;2024-02-21T07:42:18;1.33;;;0.90;;
20391;SDS011;10355;53.688;10.078;2024-02-21T07:45:01;2.25;;;1.10;;
20391;SDS011;10355;53.688;10.078;2024-02-21T07:47:44;1.95;;;1.20;;
20391;SDS011;10355;53.688;10.078;2024-02-21T07:50:29;4.18;;;1.10;;
20391;SDS011;10355;53.688;10.078;2024-02-21T07:53:12;6.45;;;1.55;;
20391;SDS011;10355;53.688;10.078;2024-02-21T07:55:54;6.90;;;1.70;;
20391;SDS011;10355;53.688;10.078;2024-02-21T07:58:37;7.63;;;1.20;;
20391;SDS011;10355;53.688;10.078;2024-02-21T08:01:20;6.53;;;1.30;;
20391;SDS011;10355;53.688;10.078;2024-02-21T08:04:03;3.10;;;1.33;;
20391;SDS011;10355;53.688;10.078;2024-02-21T08:06:50;6.80;;;1.88;;
20391;SDS011;10355;53.688;10.078;2024-02-21T08:09:34;4.55;;;1.38;;
20391;SDS011;10355;53.688;10.078;2024-02-21T08:12:19;6.05;;;1.45;;
20391;SDS011;10355;53.688;10.078;2024-02-21T08:15:02;7.22;;;1.70;;
20391;SDS011;10355;53.688;10.078;2024-02-21T08:17:45;7.18;;;1.60;;
20391;SDS011;10355;53.688;10.078;2024-02-21T08:20:28;9.55;;;2.03;;
20391;SDS011;10355;53.688;10.078;2024-02-21T08:23:12;5.47;;;1.83;;
20391;SDS011;10355;53.688;10.078;2024-02-21T08:25:55;6.55;;;1.75;;
20391;SDS011;10355;53.688;10.078;2024-02-21T08:28:38;5.45;;;1.63;;
20391;SDS011;10355;53.688;10.078;2024-02-21T08:31:21;5.78;;;1.70;;
20391;SDS011;10355;53.688;10.078;2024-02-21T08:34:06;4.75;;;1.48;;
20391;SDS011;10355;53.688;10.078;2024-02-21T08:36:49;9.65;;;1.98;;
20391;SDS011;10355;53.688;10.078;2024-02-21T08:39:33;7.07;;;1.60;;
20391;SDS011;10355;53.688;10.078;2024-02-21T08:42:15;11.18;;;2.17;;
20391;SDS011;10355;53.688;10.078;2024-02-21T08:44:58;7.00;;;1.73;;
20391;SDS011;10355;53.688;10.078;2024-02-21T08:47:41;7.13;;;1.58;;
20391;SDS011;10355;53.688;10.078;2024-02-21T08:50:24;7.80;;;1.80;;
20391;SDS011;10355;53.688;10.078;2024-02-21T08:53:10;6.88;;;1.50;;
20391;SDS011;10355;53.688;10.078;2024-02-21T08:55:54;8.73;;;1.38;;
20391;SDS011;10355;53.688;10.078;2024-02-21T08:58:37;7.93;;;1.60;;
20391;SDS011;10355;53.688;10.078;2024-02-21T09:01:20;8.88;;;1.77;;
20391;SDS011;10355;53.688;10.078;2024-02-21T09:04:03;6.80;;;1.27;;
20391;SDS011;10355;53.688;10.078;2024-02-21T09:06:47;7.82;;;1.70;;
20391;SDS011;10355;53.688;10.078;2024-02-21T09:09:29;9.90;;;1.75;;
20391;SDS011;10355;53.688;10.078;2024-02-21T09:12:15;10.68;;;1.70;;
20391;SDS011;10355;53.688;10.078;2024-02-21T09:14:58;7.22;;;1.80;;
20391;SDS011;10355;53.688;10.078;2024-02-21T09:17:41;8.98;;;2.03;;
20391;SDS011;10355;53.688;10.078;2024-02-21T09:20:24;9.07;;;1.80;;
20391;SDS011;10355;53.688;10.078;2024-02-21T09:23:06;6.85;;;1.60;;
20391;SDS011;10355;53.688;10.078;2024-02-21T09:25:49;13.60;;;2.13;;
20391;SDS011;10355;53.688;10.078;2024-02-21T09:28:33;7.05;;;1.50;;
20391;SDS011;10355;53.688;10.078;2024-02-21T09:31:16;9.10;;;1.90;;
20391;SDS011;10355;53.688;10.078;2024-02-21T09:33:59;7.13;;;1.50;;
20391;SDS011;10355;53.688;10.078;2024-02-21T09:36:42;5.65;;;1.38;;
20391;SDS011;10355;53.688;10.078;2024-02-21T09:39:26;10.45;;;1.77;;
20391;SDS011;10355;53.688;10.078;2024-02-21T09:42:08;8.18;;;1.67;;
20391;SDS011;10355;53.688;10.078;2024-02-21T09:44:55;6.53;;;1.40;;
20391;SDS011;10355;53.688;10.078;2024-02-21T09:47:40;9.80;;;1.77;;
20391;SDS011;10355;53.688;10.078;2024-02-21T09:50:26;8.38;;;1.58;;
20391;SDS011;10355;53.688;10.078;2024-02-21T09:53:10;7.72;;;2.03;;
20391;SDS011;10355;53.688;10.078;2024-02-21T09:55:54;5.30;;;1.70;;
20391;SDS011;10355;53.688;10.078;2024-02-21T09:58:37;5.85;;;1.33;;
20391;SDS011;10355;53.688;10.078;2024-02-21T10:01:22;6.50;;;1.58;;
20391;SDS011;10355;53.688;10.078;2024-02-21T10:04:15;7.35;;;1.63;;
20391;SDS011;10355;53.688;10.078;2024-02-21T10:06:58;8.40;;;1.60;;
20391;SDS011;10355;53.688;10.078;2024-02-21T10:09:41;7.85;;;1.85;;
20391;SDS011;10355;53.688;10.078;2024-02-21T10:12:26;7.05;;;1.67;;
20391;SDS011;10355;53.688;10.078;2024-02-21T10:15:09;7.38;;;1.52;;
20391;SDS011;10355;53.688;10.078;2024-02-21T10:17:59;7.38;;;1.63;;
20391;SDS011;10355;53.688;10.078;2024-02-21T10:20:42;6.85;;;1.42;;
20391;SDS011;10355;53.688;10.078;2024-02-21T10:23:25;5.00;;;1.20;;
20391;SDS011;10355;53.688;10.078;2024-02-21T10:26:08;4.43;;;1.67;;
20391;SDS011;10355;53.688;10.078;2024-02-21T10:28:51;3.88;;;1.30;;
20391;SDS011;10355;53.688;10.078;2024-02-21T10:31:36;6.20;;;1.30;;
20391;SDS011;10355;53.688;10.078;2024-02-21T10:34:21;1.98;;;1.00;;
20391;SDS011;10355;53.688;10.078;2024-02-21T10:37:05;4.15;;;1.10;;
20391;SDS011;10355;53.688;10.078;2024-02-21T10:39:48;2.72;;;1.00;;
20391;SDS011;10355;53.688;10.078;2024-02-21T10:42:33;5.15;;;1.42;;
20391;SDS011;10355;53.688;10.078;2024-02-21T10:45:18;1.30;;;1.00;;
20391;SDS011;10355;53.688;10.078;2024-02-21T10:48:03;2.80;;;1.10;;
20391;SDS011;10355;53.688;10.078;2024-02-21T10:50:53;1.58;;;1.20;;
20391;SDS011;10355;53.688;10.078;2024-02-21T10:53:44;3.50;;;1.45;;
20391;SDS011;10355;53.688;10.078;2024-02-21T10:56:28;4.40;;;2.20;;
20391;SDS011;10355;53.688;10.078;2024-02-21T10:59:12;2.75;;;2.00;;
20391;SDS011;10355;53.688;10.078;2024-02-21T11:01:55;4.05;;;2.60;;
20391;SDS011;10355;53.688;10.078;2024-02-21T11:04:40;5.50;;;3.13;;
20391;SDS011;10355;53.688;10.078;2024-02-21T11:07:25;7.03;;;3.35;;
20391;SDS011;10355;53.688;10.078;2024-02-21T11:10:20;6.10;;;3.50;;
20391;SDS011;10355;53.688;10.078;2024-02-21T11:13:06;9.13;;;3.80;;
20391;SDS011;10355;53.688;10.078;2024-02-21T11:15:50;6.32;;;4.13;;
20391;SDS011;10355;53.688;10.078;2024-02-21T11:18:32;7.50;;;4.90;;
20391;SDS011;10355;53.688;10.078;2024-02-21T11:21:15;8.25;;;5.32;;
20391;SDS011;10355;53.688;10.078;2024-02-21T11:23:59;8.40;;;5.63;;
20391;SDS011;10355;53.688;10.078;2024-02-21T11:26:46;9.70;;;5.85;;
20391;SDS011;10355;53.688;10.078;2024-02-21T11:29:31;11.77;;;6.68;;
20391;SDS011;10355;53.688;10.078;2024-02-21T11:32:14;14.82;;;7.68;;
20391;SDS011;10355;53.688;10.078;2024-02-21T11:34:58;12.25;;;7.43;;
20391;SDS011;10355;53.688;10.078;2024-02-21T11:37:44;15.57;;;8.52;;
20391;SDS011;10355;53.688;10.078;2024-02-21T11:40:29;17.50;;;7.60;;
20391;SDS011;10355;53.688;10.078;2024-02-21T11:43:12;12.63;;;8.02;;
20391;SDS011;10355;53.688;10.078;2024-02-21T11:46:01;14.25;;;8.07;;
20391;SDS011;10355;53.688;10.078;2024-02-21T11:48:44;16.25;;;8.32;;
20391;SDS011;10355;53.688;10.078;2024-02-21T11:51:31;12.15;;;7.43;;
20391;SDS011;10355;53.688;10.078;2024-02-21T11:54:16;12.02;;;7.07;;
20391;SDS011;10355;53.688;10.078;2024-02-21T11:57:00;14.77;;;7.05;;
20391;SDS011;10355;53.688;10.078;2024-02-21T11:59:44;11.75;;;7.20;;
20391;SDS011;10355;53.688;10.078;2024-02-21T12:02:27;15.00;;;7.00;;
20391;SDS011;10355;53.688;10.078;2024-02-21T12:05:10;11.18;;;6.40;;
20391;SDS011;10355;53.688;10.078;2024-02-21T12:07:53;11.88;;;6.13;;
20391;SDS011;10355;53.688;10.078;2024-02-21T12:10:36;12.98;;;6.28;;
20391;SDS011;10355;53.688;10.078;2024-02-21T12:13:23;12.02;;;5.40;;
20391;SDS011;10355;53.688;10.078;2024-02-21T12:16:06;9.82;;;5.25;;
20391;SDS011;10355;53.688;10.078;2024-02-21T12:18:50;10.15;;;5.35;;
20391;SDS011;10355;53.688;10.078;2024-02-21T12:21:35;10.00;;;5.32;;
20391;SDS011;10355;53.688;10.078;2024-02-21T12:24:21;9.45;;;5.05;;
20391;SDS011;10355;53.688;10.078;2024-02-21T12:27:04;11.13;;;5.20;;
20391;SDS011;10355;53.688;10.078;2024-02-21T12:29:48;8.98;;;5.03;;
20391;SDS011;10355;53.688;10.078;2024-02-21T12:32:31;10.18;;;4.90;;
20391;SDS011;10355;53.688;10.078;2024-02-21T12:35:14;8.07;;;4.82;;
20391;SDS011;10355;53.688;10.078;2024-02-21T12:37:57;13.45;;;4.85;;
20391;SDS011;10355;53.688;10.078;2024-02-21T12:40:41;9.88;;;5.05;;
20391;SDS011;10355;53.688;10.078;2024-02-21T12:43:24;9.77;;;4.43;;
20391;SDS011;10355;53.688;10.078;2024-02-21T12:46:08;10.65;;;4.80;;
20391;SDS011;10355;53.688;10.078;2024-02-21T12:48:51;11.23;;;5.40;;
20391;SDS011;10355;53.688;10.078;2024-02-21T12:51:34;11.48;;;5.40;;
20391;SDS011;10355;53.688;10.078;2024-02-21T12:54:17;10.50;;;5.28;;
20391;SDS011;10355;53.688;10.078;2024-02-21T12:57:00;12.07;;;5.72;;
20391;SDS011;10355;53.688;10.078;2024-02-21T12:59:44;9.07;;;5.35;;
20391;SDS011;10355;53.688;10.078;2024-02-21T13:02:28;8.57;;;5.00;;
20391;SDS011;10355;53.688;10.078;2024-02-21T13:05:11;9.43;;;5.05;;
20391;SDS011;10355;53.688;10.078;2024-02-21T13:07:54;9.32;;;4.90;;
20391;SDS011;10355;53.688;10.078;2024-02-21T13:10:37;7.63;;;4.70;;
20391;SDS011;10355;53.688;10.078;2024-02-21T13:13:20;8.88;;;5.13;;
20391;SDS011;10355;53.688;10.078;2024-02-21T13:16:03;10.40;;;5.10;;
20391;SDS011;10355;53.688;10.078;2024-02-21T13:18:48;7.93;;;4.50;;
20391;SDS011;10355;53.688;10.078;2024-02-21T13:21:31;9.00;;;5.10;;
20391;SDS011;10355;53.688;10.078;2024-02-21T13:24:14;8.15;;;4.75;;
20391;SDS011;10355;53.688;10.078;2024-02-21T13:26:57;11.43;;;5.13;;
20391;SDS011;10355;53.688;10.078;2024-02-21T13:29:39;16.48;;;5.25;;
20391;SDS011;10355;53.688;10.078;2024-02-21T13:32:22;10.32;;;4.93;;
20391;SDS011;10355;53.688;10.078;2024-02-21T13:35:07;12.85;;;5.65;;
20391;SDS011;10355;53.688;10.078;2024-02-21T13:37:50;11.80;;;5.28;;
20391;SDS011;10355;53.688;10.078;2024-02-21T13:40:33;9.48;;;5.43;;
20391;SDS011;10355;53.688;10.078;2024-02-21T13:43:16;10.10;;;5.10;;
20391;SDS011;10355;53.688;10.078;2024-02-21T13:46:00;10.27;;;5.38;;
20391;SDS011;10355;53.688;10.078;2024-02-21T13:48:44;13.63;;;6.18;;
20391;SDS011;10355;53.688;10.078;2024-02-21T13:51:28;11.32;;;5.45;;
20391;SDS011;10355;53.688;10.078;2024-02-21T13:54:11;14.50;;;5.60;;
20391;SDS011;10355;53.688;10.078;2024-02-21T13:56:56;10.70;;;5.63;;
20391;SDS011;10355;53.688;10.078;2024-02-21T13:59:38;10.00;;;5.47;;
20391;SDS011;10355;53.688;10.078;2024-02-21T14:02:24;14.02;;;5.60;;
20391;SDS011;10355;53.688;10.078;2024-02-21T14:05:07;11.32;;;4.97;;
20391;SDS011;10355;53.688;10.078;2024-02-21T14:07:52;8.10;;;4.82;;
20391;SDS011;10355;53.688;10.078;2024-02-21T14:10:36;10.57;;;5.57;;
20391;SDS011;10355;53.688;10.078;2024-02-21T14:13:19;11.48;;;5.10;;
20391;SDS011;10355;53.688;10.078;2024-02-21T14:16:02;10.52;;;5.13;;
20391;SDS011;10355;53.688;10.078;2024-02-21T14:18:45;10.27;;;4.68;;
20391;SDS011;10355;53.688;10.078;2024-02-21T14:21:28;13.05;;;5.25;;
20391;SDS011;10355;53.688;10.078;2024-02-21T14:24:12;12.95;;;5.18;;
20391;SDS011;10355;53.688;10.078;2024-02-21T14:26:55;15.40;;;5.38;;
20391;SDS011;10355;53.688;10.078;2024-02-21T14:29:38;7.88;;;4.78;;
20391;SDS011;10355;53.688;10.078;2024-02-21T14:32:21;12.90;;;5.25;;
20391;SDS011;10355;53.688;10.078;2024-02-21T14:35:04;11.50;;;5.20;;
20391;SDS011;10355;53.688;10.078;2024-02-21T14:37:47;10.45;;;4.90;;
20391;SDS011;10355;53.688;10.078;2024-02-21T14:40:32;8.52;;;4.50;;
20391;SDS011;10355;53.688;10.078;2024-02-21T14:43:15;12.10;;;5.45;;
20391;SDS011;10355;53.688;10.078;2024-02-21T14:45:59;9.20;;;5.10;;
20391;SDS011;10355;53.688;10.078;2024-02-21T14:48:41;8.38;;;4.38;;
20391;SDS011;10355;53.688;10.078;2024-02-21T14:51:24;9.63;;;4.60;;
20391;SDS011;10355;53.688;10.078;2024-02-21T14:54:07;12.02;;;4.80;;
20391;SDS011;10355;53.688;10.078;2024-02-21T14:56:51;9.43;;;4.28;;
20391;SDS011;10355;53.688;10.078;2024-02-21T14:59:35;8.40;;;4.32;;
20391;SDS011;10355;53.688;10.078;2024-02-21T15:02:18;9.32;;;4.10;;
20391;SDS011;10355;53.688;10.078;2024-02-21T15:05:01;12.30;;;4.68;;
20391;SDS011;10355;53.688;10.078;2024-02-21T15:07:45;9.10;;;4.25;;
20391;SDS011;10355;53.688;10.078;2024-02-21T15:10:28;10.25;;;3.80;;
20391;SDS011;10355;53.688;10.078;2024-02-21T15:13:12;6.75;;;4.07;;
20391;SDS011;10355;53.688;10.078;2024-02-21T15:15:55;7.85;;;4.03;;
20391;SDS011;10355;53.688;10.078;2024-02-21T15:18:38;5.88;;;3.70;;
20391;SDS011;10355;53.688;10.078;2024-02-21T15:21:21;8.25;;;3.78;;
20391;SDS011;10355;53.688;10.078;2024-02-21T15:24:04;9.50;;;4.10;;
20391;SDS011;10355;53.688;10.078;2024-02-21T15:26:47;11.32;;;3.63;;
20391;SDS011;10355;53.688;10.078;2024-02-21T15:29:31;6.38;;;3.63;;
20391;SDS011;10355;53.688;10.078;2024-02-21T15:32:14;9.63;;;4.07;;
20391;SDS011;10355;53.688;10.078;2024-02-21T15:34:57;7.53;;;3.80;;
20391;SDS011;10355;53.688;10.078;2024-02-21T15:37:40;10.75;;;3.95;;
20391;SDS011;10355;53.688;10.078;2024-02-21T15:40:23;7.22;;;3.88;;
20391;SDS011;10355;53.688;10.078;2024-02-21T15:43:06;9.05;;;4.07;;
20391;SDS011;10355;53.688;10.078;2024-02-21T15:45:51;7.95;;;4.00;;
20391;SDS011;10355;53.688;10.078;2024-02-21T15:48:33;7.82;;;3.88;;
20391;SDS011;10355;53.688;10.078;2024-02-21T15:51:16;6.28;;;4.03;;
20391;SDS011;10355;53.688;10.078;2024-02-21T15:53:59;9.50;;;4.35;;
20391;SDS011;10355;53.688;10.078;2024-02-21T15:56:43;7.93;;;4.43;;
20391;SDS011;10355;53.688;10.078;2024-02-21T15:59:26;7.95;;;3.60;;
20391;SDS011;10355;53.688;10.078;2024-02-21T16:02:10;6.25;;;3.50;;
20391;SDS011;10355;53.688;10.078;2024-02-21T16:04:53;7.32;;;3.60;;